sensor_id;sensor_type;location;lat;lon;timestamp;temperature;humidity
23063;DHT22;11699;43.704;10.430;2023-04-27T00:00:34;12.80;99.90
23063;DHT22;11699;43.704;10.430;2023-04-27T00:03:01;12.70;99.90
23063;DHT22;11699;43.704;10.430;2023-04-27T00:05:33;12.70;99.90
23063;DHT22;11699;43.704;10.430;2023-04-27T00:08:00;12.70;99.90
23063;DHT22;11699;43.704;10.430;2023-04-27T00:10:27;12.60;99.90
23063;DHT22;11699;43.704;10.430;2023-04-27T00:12:55;12.60;99.90
23063;DHT22;11699;43.704;10.430;2023-04-27T00:15:22;12.50;99.90
23063;DHT22;11699;43.704;10.430;2023-04-27T00:17:49;12.50;99.90
23063;DHT22;11699;43.704;10.430;2023-04-27T00:20:16;12.40;99.90
23063;DHT22;11699;43.704;10.430;2023-04-27T00:22:46;12.30;99.90
23063;DHT22;11699;43.704;10.430;2023-04-27T00:25:14;12.30;99.90
23063;DHT22;11699;43.704;10.430;2023-04-27T00:27:41;12.30;99.90
23063;DHT22;11699;43.704;10.430;2023-04-27T00:30:09;12.30;99.90
23063;DHT22;11699;43.704;10.430;2023-04-27T00:32:36;12.20;99.90
23063;DHT22;11699;43.704;10.430;2023-04-27T00:35:04;12.20;99.90
23063;DHT22;11699;43.704;10.430;2023-04-27T00:37:32;12.10;99.90
23063;DHT22;11699;43.704;10.430;2023-04-27T00:40:02;12.10;99.90
23063;DHT22;11699;43.704;10.430;2023-04-27T00:42:30;12.10;99.90
23063;DHT22;11699;43.704;10.430;2023-04-27T00:44:57;12.00;99.90
23063;DHT22;11699;43.704;10.430;2023-04-27T00:47:24;11.80;99.90
23063;DHT22;11699;43.704;10.430;2023-04-27T00:49:52;11.70;99.90
23063;DHT22;11699;43.704;10.430;2023-04-27T00:52:19;11.70;99.90
23063;DHT22;11699;43.704;10.430;2023-04-27T00:54:49;11.60;99.90
23063;DHT22;11699;43.704;10.430;2023-04-27T00:57:18;11.60;99.90
23063;DHT22;11699;43.704;10.430;2023-04-27T00:59:45;11.50;99.90
23063;DHT22;11699;43.704;10.430;2023-04-27T01:02:13;11.50;99.90
23063;DHT22;11699;43.704;10.430;2023-04-27T01:04:41;11.50;99.90
23063;DHT22;11699;43.704;10.430;2023-04-27T01:07:09;11.50;99.90
23063;DHT22;11699;43.704;10.430;2023-04-27T01:09:36;11.50;99.90
23063;DHT22;11699;43.704;10.430;2023-04-27T01:12:04;11.50;99.90
23063;DHT22;11699;43.704;10.430;2023-04-27T01:14:33;11.50;99.90
23063;DHT22;11699;43.704;10.430;2023-04-27T01:17:02;11.50;99.90
23063;DHT22;11699;43.704;10.430;2023-04-27T01:19:29;11.50;99.90
23063;DHT22;11699;43.704;10.430;2023-04-27T01:21:56;11.50;99.90
23063;DHT22;11699;43.704;10.430;2023-04-27T01:24:25;11.50;99.90
23063;DHT22;11699;43.704;10.430;2023-04-27T01:26:52;11.40;99.90
23063;DHT22;11699;43.704;10.430;2023-04-27T01:29:20;11.50;99.90
23063;DHT22;11699;43.704;10.430;2023-04-27T01:31:47;11.60;99.90
23063;DHT22;11699;43.704;10.430;2023-04-27T01:34:14;11.70;99.90
23063;DHT22;11699;43.704;10.430;2023-04-27T01:36:42;11.90;99.90
23063;DHT22;11699;43.704;10.430;2023-04-27T01:39:09;12.00;99.90
23063;DHT22;11699;43.704;10.430;2023-04-27T01:41:38;12.00;99.90
23063;DHT22;11699;43.704;10.430;2023-04-27T01:44:05;12.00;99.90
23063;DHT22;11699;43.704;10.430;2023-04-27T01:46:32;11.90;99.90
23063;DHT22;11699;43.704;10.430;2023-04-27T01:49:00;11.80;99.90
23063;DHT22;11699;43.704;10.430;2023-04-27T01:51:28;11.50;99.90
23063;DHT22;11699;43.704;10.430;2023-04-27T01:53:55;11.20;99.90
23063;DHT22;11699;43.704;10.430;2023-04-27T01:56:23;11.20;99.90
23063;DHT22;11699;43.704;10.430;2023-04-27T01:58:53;11.20;99.90
23063;DHT22;11699;43.704;10.430;2023-04-27T02:01:20;11.10;99.90
23063;DHT22;11699;43.704;10.430;2023-04-27T02:03:48;11.00;99.90
23063;DHT22;11699;43.704;10.430;2023-04-27T02:06:16;11.00;99.90
23063;DHT22;11699;43.704;10.430;2023-04-27T02:08:43;11.00;99.90
23063;DHT22;11699;43.704;10.430;2023-04-27T02:11:10;10.90;99.90
23063;DHT22;11699;43.704;10.430;2023-04-27T02:13:38;10.90;99.90
23063;DHT22;11699;43.704;10.430;2023-04-27T02:16:07;10.80;99.90
23063;DHT22;11699;43.704;10.430;2023-04-27T02:18:34;10.80;99.90
23063;DHT22;11699;43.704;10.430;2023-04-27T02:21:07;10.80;99.90
23063;DHT22;11699;43.704;10.430;2023-04-27T02:23:34;10.80;99.90
23063;DHT22;11699;43.704;10.430;2023-04-27T02:26:02;10.80;99.90
23063;DHT22;11699;43.704;10.430;2023-04-27T02:28:30;10.90;99.90
23063;DHT22;11699;43.704;10.430;2023-04-27T02:30:57;10.90;99.90
23063;DHT22;11699;43.704;10.430;2023-04-27T02:33:26;11.00;99.90
23063;DHT22;11699;43.704;10.430;2023-04-27T02:35:53;11.10;99.90
23063;DHT22;11699;43.704;10.430;2023-04-27T02:38:20;11.10;99.90
23063;DHT22;11699;43.704;10.430;2023-04-27T02:40:52;11.00;99.90
23063;DHT22;11699;43.704;10.430;2023-04-27T02:43:20;10.80;99.90
23063;DHT22;11699;43.704;10.430;2023-04-27T02:45:47;10.70;99.90
23063;DHT22;11699;43.704;10.430;2023-04-27T02:48:15;10.50;99.90
23063;DHT22;11699;43.704;10.430;2023-04-27T02:50:44;10.50;99.90
23063;DHT22;11699;43.704;10.430;2023-04-27T02:53:12;10.40;99.90
23063;DHT22;11699;43.704;10.430;2023-04-27T02:55:44;10.30;99.90
23063;DHT22;11699;43.704;10.430;2023-04-27T02:58:13;10.20;99.90
23063;DHT22;11699;43.704;10.430;2023-04-27T03:00:40;10.20;99.90
23063;DHT22;11699;43.704;10.430;2023-04-27T03:03:08;10.20;99.90
23063;DHT22;11699;43.704;10.430;2023-04-27T03:05:35;10.20;99.90
23063;DHT22;11699;43.704;10.430;2023-04-27T03:08:04;10.20;99.90
23063;DHT22;11699;43.704;10.430;2023-04-27T03:10:31;10.10;99.90
23063;DHT22;11699;43.704;10.430;2023-04-27T03:12:59;10.20;99.90
23063;DHT22;11699;43.704;10.430;2023-04-27T03:15:26;10.30;99.90
23063;DHT22;11699;43.704;10.430;2023-04-27T03:17:54;10.40;99.90
23063;DHT22;11699;43.704;10.430;2023-04-27T03:20:21;10.40;99.90
23063;DHT22;11699;43.704;10.430;2023-04-27T03:22:49;10.20;99.90
23063;DHT22;11699;43.704;10.430;2023-04-27T03:25:18;10.10;99.90
23063;DHT22;11699;43.704;10.430;2023-04-27T03:27:46;10.00;99.90
23063;DHT22;11699;43.704;10.430;2023-04-27T03:30:14;9.90;99.90
23063;DHT22;11699;43.704;10.430;2023-04-27T03:32:41;9.80;99.90
23063;DHT22;11699;43.704;10.430;2023-04-27T03:35:08;9.70;99.90
23063;DHT22;11699;43.704;10.430;2023-04-27T03:37:36;9.60;99.90
23063;DHT22;11699;43.704;10.430;2023-04-27T03:40:04;9.60;99.90
23063;DHT22;11699;43.704;10.430;2023-04-27T03:42:33;9.70;99.90
23063;DHT22;11699;43.704;10.430;2023-04-27T03:45:01;9.70;99.90
23063;DHT22;11699;43.704;10.430;2023-04-27T03:47:29;9.70;99.90
23063;DHT22;11699;43.704;10.430;2023-04-27T03:49:56;9.70;99.90
23063;DHT22;11699;43.704;10.430;2023-04-27T03:52:23;9.70;99.90
23063;DHT22;11699;43.704;10.430;2023-04-27T03:54:51;9.80;99.90
23063;DHT22;11699;43.704;10.430;2023-04-27T03:57:18;9.80;99.90
23063;DHT22;11699;43.704;10.430;2023-04-27T03:59:47;9.80;99.90
23063;DHT22;11699;43.704;10.430;2023-04-27T04:02:15;9.80;99.90
23063;DHT22;11699;43.704;10.430;2023-04-27T04:04:42;9.80;99.90
23063;DHT22;11699;43.704;10.430;2023-04-27T04:07:09;9.80;99.90
23063;DHT22;11699;43.704;10.430;2023-04-27T04:09:37;9.80;99.90
23063;DHT22;11699;43.704;10.430;2023-04-27T04:12:05;9.80;99.90
23063;DHT22;11699;43.704;10.430;2023-04-27T04:14:32;9.80;99.90
23063;DHT22;11699;43.704;10.430;2023-04-27T04:17:01;9.80;99.90
23063;DHT22;11699;43.704;10.430;2023-04-27T04:19:28;9.80;99.90
23063;DHT22;11699;43.704;10.430;2023-04-27T04:21:56;9.90;99.90
23063;DHT22;11699;43.704;10.430;2023-04-27T04:24:23;9.90;99.90
23063;DHT22;11699;43.704;10.430;2023-04-27T04:26:50;10.00;99.90
23063;DHT22;11699;43.704;10.430;2023-04-27T04:29:18;10.00;99.90
23063;DHT22;11699;43.704;10.430;2023-04-27T04:31:46;9.90;99.90
23063;DHT22;11699;43.704;10.430;2023-04-27T04:34:15;9.90;99.90
23063;DHT22;11699;43.704;10.430;2023-04-27T04:36:42;9.90;99.90
23063;DHT22;11699;43.704;10.430;2023-04-27T04:39:10;9.90;99.90
23063;DHT22;11699;43.704;10.430;2023-04-27T04:41:38;10.00;99.90
23063;DHT22;11699;43.704;10.430;2023-04-27T04:44:05;10.10;99.90
23063;DHT22;11699;43.704;10.430;2023-04-27T04:46:32;10.10;99.90
23063;DHT22;11699;43.704;10.430;2023-04-27T04:49:02;10.10;99.90
23063;DHT22;11699;43.704;10.430;2023-04-27T04:51:30;10.10;99.90
23063;DHT22;11699;43.704;10.430;2023-04-27T04:53:58;10.10;99.90
23063;DHT22;11699;43.704;10.430;2023-04-27T04:56:25;10.10;99.90
23063;DHT22;11699;43.704;10.430;2023-04-27T04:58:52;10.20;99.90
23063;DHT22;11699;43.704;10.430;2023-04-27T05:01:20;10.20;99.90
23063;DHT22;11699;43.704;10.430;2023-04-27T05:03:47;10.20;99.90
23063;DHT22;11699;43.704;10.430;2023-04-27T05:06:14;10.30;99.90
23063;DHT22;11699;43.704;10.430;2023-04-27T05:08:43;10.30;99.90
23063;DHT22;11699;43.704;10.430;2023-04-27T05:11:10;10.30;99.90
23063;DHT22;11699;43.704;10.430;2023-04-27T05:13:37;10.50;99.90
23063;DHT22;11699;43.704;10.430;2023-04-27T05:16:06;10.80;99.90
23063;DHT22;11699;43.704;10.430;2023-04-27T05:18:33;10.80;99.90
23063;DHT22;11699;43.704;10.430;2023-04-27T05:21:01;10.80;99.90
23063;DHT22;11699;43.704;10.430;2023-04-27T05:23:28;10.50;99.90
23063;DHT22;11699;43.704;10.430;2023-04-27T05:25:57;10.50;99.90
23063;DHT22;11699;43.704;10.430;2023-04-27T05:28:24;10.30;99.90
23063;DHT22;11699;43.704;10.430;2023-04-27T05:30:52;10.40;99.90
23063;DHT22;11699;43.704;10.430;2023-04-27T05:33:19;10.60;99.90
23063;DHT22;11699;43.704;10.430;2023-04-27T05:35:47;10.70;99.90
23063;DHT22;11699;43.704;10.430;2023-04-27T05:38:14;10.90;99.90
23063;DHT22;11699;43.704;10.430;2023-04-27T05:40:42;11.10;99.90
23063;DHT22;11699;43.704;10.430;2023-04-27T05:43:10;11.20;99.90
23063;DHT22;11699;43.704;10.430;2023-04-27T05:45:38;11.30;99.90
23063;DHT22;11699;43.704;10.430;2023-04-27T05:48:06;11.30;99.90
23063;DHT22;11699;43.704;10.430;2023-04-27T05:50:33;11.30;99.90
23063;DHT22;11699;43.704;10.430;2023-04-27T05:53:00;11.40;99.90
23063;DHT22;11699;43.704;10.430;2023-04-27T05:55:30;11.60;99.90
23063;DHT22;11699;43.704;10.430;2023-04-27T05:57:58;11.80;99.90
23063;DHT22;11699;43.704;10.430;2023-04-27T06:00:26;12.00;99.90
23063;DHT22;11699;43.704;10.430;2023-04-27T06:02:54;12.20;99.90
23063;DHT22;11699;43.704;10.430;2023-04-27T06:05:21;12.30;99.90
23063;DHT22;11699;43.704;10.430;2023-04-27T06:07:48;12.40;99.90
23063;DHT22;11699;43.704;10.430;2023-04-27T06:10:15;12.70;99.90
23063;DHT22;11699;43.704;10.430;2023-04-27T06:12:43;12.80;99.90
23063;DHT22;11699;43.704;10.430;2023-04-27T06:15:10;12.90;99.90
23063;DHT22;11699;43.704;10.430;2023-04-27T06:17:39;13.00;99.90
23063;DHT22;11699;43.704;10.430;2023-04-27T06:20:09;13.10;99.90
23063;DHT22;11699;43.704;10.430;2023-04-27T06:22:37;13.20;99.90
23063;DHT22;11699;43.704;10.430;2023-04-27T06:25:05;13.30;99.90
23063;DHT22;11699;43.704;10.430;2023-04-27T06:27:33;13.60;99.90
23063;DHT22;11699;43.704;10.430;2023-04-27T06:30:01;13.80;99.90
23063;DHT22;11699;43.704;10.430;2023-04-27T06:32:28;14.50;99.90
23063;DHT22;11699;43.704;10.430;2023-04-27T06:34:57;15.00;99.90
23063;DHT22;11699;43.704;10.430;2023-04-27T06:37:24;15.20;99.90
23063;DHT22;11699;43.704;10.430;2023-04-27T06:39:52;15.50;99.90
23063;DHT22;11699;43.704;10.430;2023-04-27T06:42:23;15.40;99.90
23063;DHT22;11699;43.704;10.430;2023-04-27T06:44:52;15.20;99.90
23063;DHT22;11699;43.704;10.430;2023-04-27T06:47:21;15.10;99.90
23063;DHT22;11699;43.704;10.430;2023-04-27T06:49:48;15.10;99.90
23063;DHT22;11699;43.704;10.430;2023-04-27T06:52:17;15.30;99.90
23063;DHT22;11699;43.704;10.430;2023-04-27T06:54:44;15.50;99.90
23063;DHT22;11699;43.704;10.430;2023-04-27T06:57:12;15.80;99.90
23063;DHT22;11699;43.704;10.430;2023-04-27T06:59:39;16.80;99.90
23063;DHT22;11699;43.704;10.430;2023-04-27T07:02:07;18.60;99.90
23063;DHT22;11699;43.704;10.430;2023-04-27T07:04:34;19.70;99.90
23063;DHT22;11699;43.704;10.430;2023-04-27T07:07:02;20.50;99.90
23063;DHT22;11699;43.704;10.430;2023-04-27T07:09:31;21.30;99.90
23063;DHT22;11699;43.704;10.430;2023-04-27T07:11:58;22.30;99.90
23063;DHT22;11699;43.704;10.430;2023-04-27T07:14:26;22.20;99.90
23063;DHT22;11699;43.704;10.430;2023-04-27T07:16:53;22.10;99.90
23063;DHT22;11699;43.704;10.430;2023-04-27T07:19:21;22.00;99.90
23063;DHT22;11699;43.704;10.430;2023-04-27T07:21:48;22.50;99.90
23063;DHT22;11699;43.704;10.430;2023-04-27T07:24:16;22.60;99.90
23063;DHT22;11699;43.704;10.430;2023-04-27T07:26:45;23.10;99.90
23063;DHT22;11699;43.704;10.430;2023-04-27T07:29:12;23.40;99.90
23063;DHT22;11699;43.704;10.430;2023-04-27T07:31:42;23.70;99.90
23063;DHT22;11699;43.704;10.430;2023-04-27T07:34:09;24.10;99.90
23063;DHT22;11699;43.704;10.430;2023-04-27T07:36:37;24.60;99.20
23063;DHT22;11699;43.704;10.430;2023-04-27T07:39:04;24.90;99.30
23063;DHT22;11699;43.704;10.430;2023-04-27T07:41:33;24.80;98.40
23063;DHT22;11699;43.704;10.430;2023-04-27T07:44:01;25.10;98.00
23063;DHT22;11699;43.704;10.430;2023-04-27T07:46:29;24.70;98.30
23063;DHT22;11699;43.704;10.430;2023-04-27T07:48:56;24.50;98.70
23063;DHT22;11699;43.704;10.430;2023-04-27T07:51:25;25.00;98.40
23063;DHT22;11699;43.704;10.430;2023-04-27T07:53:53;24.90;98.50
23063;DHT22;11699;43.704;10.430;2023-04-27T07:56:21;24.70;98.20
23063;DHT22;11699;43.704;10.430;2023-04-27T07:58:48;25.00;98.40
23063;DHT22;11699;43.704;10.430;2023-04-27T08:01:17;25.00;98.10
23063;DHT22;11699;43.704;10.430;2023-04-27T08:03:44;25.10;98.00
23063;DHT22;11699;43.704;10.430;2023-04-27T08:06:12;25.20;97.60
23063;DHT22;11699;43.704;10.430;2023-04-27T08:08:39;25.80;97.60
23063;DHT22;11699;43.704;10.430;2023-04-27T08:11:08;26.60;97.20
23063;DHT22;11699;43.704;10.430;2023-04-27T08:13:36;25.70;95.50
23063;DHT22;11699;43.704;10.430;2023-04-27T08:16:04;25.90;96.40
23063;DHT22;11699;43.704;10.430;2023-04-27T08:18:33;26.60;96.30
23063;DHT22;11699;43.704;10.430;2023-04-27T08:21:00;26.80;95.30
23063;DHT22;11699;43.704;10.430;2023-04-27T08:23:29;26.80;96.20
23063;DHT22;11699;43.704;10.430;2023-04-27T08:25:57;26.30;95.30
23063;DHT22;11699;43.704;10.430;2023-04-27T08:28:25;25.90;95.80
23063;DHT22;11699;43.704;10.430;2023-04-27T08:30:52;26.20;96.90
23063;DHT22;11699;43.704;10.430;2023-04-27T08:33:19;26.40;96.70
23063;DHT22;11699;43.704;10.430;2023-04-27T08:35:48;26.90;95.70
23063;DHT22;11699;43.704;10.430;2023-04-27T08:38:15;26.40;94.90
23063;DHT22;11699;43.704;10.430;2023-04-27T08:40:43;25.80;96.30
23063;DHT22;11699;43.704;10.430;2023-04-27T08:43:10;26.10;95.90
23063;DHT22;11699;43.704;10.430;2023-04-27T08:45:38;26.30;94.00
23063;DHT22;11699;43.704;10.430;2023-04-27T08:48:13;26.20;94.70
23063;DHT22;11699;43.704;10.430;2023-04-27T08:50:43;26.20;95.20
23063;DHT22;11699;43.704;10.430;2023-04-27T08:53:18;26.50;94.40
23063;DHT22;11699;43.704;10.430;2023-04-27T08:55:47;26.80;93.70
23063;DHT22;11699;43.704;10.430;2023-04-27T08:58:15;27.40;94.80
23063;DHT22;11699;43.704;10.430;2023-04-27T09:00:43;27.80;94.00
23063;DHT22;11699;43.704;10.430;2023-04-27T09:03:18;27.00;92.90
23063;DHT22;11699;43.704;10.430;2023-04-27T09:05:48;26.00;93.80
23063;DHT22;11699;43.704;10.430;2023-04-27T09:08:15;25.50;93.50
23063;DHT22;11699;43.704;10.430;2023-04-27T09:10:44;25.90;95.30
23063;DHT22;11699;43.704;10.430;2023-04-27T09:13:12;26.40;93.80
23063;DHT22;11699;43.704;10.430;2023-04-27T09:15:44;27.10;94.90
23063;DHT22;11699;43.704;10.430;2023-04-27T09:18:14;27.40;93.20
23063;DHT22;11699;43.704;10.430;2023-04-27T09:20:43;27.20;93.60
23063;DHT22;11699;43.704;10.430;2023-04-27T09:23:25;27.20;94.30
23063;DHT22;11699;43.704;10.430;2023-04-27T09:25:55;27.70;93.90
23063;DHT22;11699;43.704;10.430;2023-04-27T09:28:24;28.40;93.60
23063;DHT22;11699;43.704;10.430;2023-04-27T09:30:53;28.60;92.00
23063;DHT22;11699;43.704;10.430;2023-04-27T09:33:25;28.10;92.60
23063;DHT22;11699;43.704;10.430;2023-04-27T09:35:53;27.80;93.50
23063;DHT22;11699;43.704;10.430;2023-04-27T09:38:22;28.40;92.50
23063;DHT22;11699;43.704;10.430;2023-04-27T09:40:54;28.70;92.40
23063;DHT22;11699;43.704;10.430;2023-04-27T09:43:22;28.80;92.60
23063;DHT22;11699;43.704;10.430;2023-04-27T09:45:53;27.90;92.10
23063;DHT22;11699;43.704;10.430;2023-04-27T09:48:21;26.90;91.70
23063;DHT22;11699;43.704;10.430;2023-04-27T09:50:49;27.10;93.20
23063;DHT22;11699;43.704;10.430;2023-04-27T09:53:20;27.90;93.20
23063;DHT22;11699;43.704;10.430;2023-04-27T09:56:06;27.50;91.10
23063;DHT22;11699;43.704;10.430;2023-04-27T09:58:48;26.70;93.20
23063;DHT22;11699;43.704;10.430;2023-04-27T10:01:24;26.90;92.80
23063;DHT22;11699;43.704;10.430;2023-04-27T10:04:04;26.90;93.30
23063;DHT22;11699;43.704;10.430;2023-04-27T10:06:59;27.30;92.20
23063;DHT22;11699;43.704;10.430;2023-04-27T10:09:28;28.20;91.60
23063;DHT22;11699;43.704;10.430;2023-04-27T10:12:14;28.20;91.80
23063;DHT22;11699;43.704;10.430;2023-04-27T10:14:52;27.70;91.00
23063;DHT22;11699;43.704;10.430;2023-04-27T10:17:24;26.90;90.10
23063;DHT22;11699;43.704;10.430;2023-04-27T10:19:56;26.40;91.00
23063;DHT22;11699;43.704;10.430;2023-04-27T10:22:35;26.60;91.60
23063;DHT22;11699;43.704;10.430;2023-04-27T10:25:12;27.40;92.70
23063;DHT22;11699;43.704;10.430;2023-04-27T10:27:42;27.90;92.40
23063;DHT22;11699;43.704;10.430;2023-04-27T10:30:12;28.40;92.20
23063;DHT22;11699;43.704;10.430;2023-04-27T10:32:49;28.30;92.90
23063;DHT22;11699;43.704;10.430;2023-04-27T10:35:18;28.80;92.20
23063;DHT22;11699;43.704;10.430;2023-04-27T10:37:45;29.00;92.80
23063;DHT22;11699;43.704;10.430;2023-04-27T10:40:14;29.00;91.50
23063;DHT22;11699;43.704;10.430;2023-04-27T10:42:45;28.60;91.10
23063;DHT22;11699;43.704;10.430;2023-04-27T10:45:24;28.30;90.10
23063;DHT22;11699;43.704;10.430;2023-04-27T10:47:57;28.30;92.10
23063;DHT22;11699;43.704;10.430;2023-04-27T10:50:25;28.40;90.80
23063;DHT22;11699;43.704;10.430;2023-04-27T10:52:52;28.90;90.50
23063;DHT22;11699;43.704;10.430;2023-04-27T10:55:21;28.70;90.40
23063;DHT22;11699;43.704;10.430;2023-04-27T10:57:51;28.00;90.40
23063;DHT22;11699;43.704;10.430;2023-04-27T11:00:22;27.90;91.00
23063;DHT22;11699;43.704;10.430;2023-04-27T11:02:51;27.70;90.70
23063;DHT22;11699;43.704;10.430;2023-04-27T11:05:20;27.40;90.30
23063;DHT22;11699;43.704;10.430;2023-04-27T11:07:48;27.40;91.50
23063;DHT22;11699;43.704;10.430;2023-04-27T11:10:17;27.60;91.60
23063;DHT22;11699;43.704;10.430;2023-04-27T11:12:45;27.70;91.30
23063;DHT22;11699;43.704;10.430;2023-04-27T11:15:14;27.60;90.80
23063;DHT22;11699;43.704;10.430;2023-04-27T11:17:41;27.50;91.30
23063;DHT22;11699;43.704;10.430;2023-04-27T11:20:09;27.50;91.10
23063;DHT22;11699;43.704;10.430;2023-04-27T11:22:43;27.60;94.20
23063;DHT22;11699;43.704;10.430;2023-04-27T11:25:12;27.70;95.50
23063;DHT22;11699;43.704;10.430;2023-04-27T11:27:40;28.00;95.60
23063;DHT22;11699;43.704;10.430;2023-04-27T11:30:20;28.00;95.40
23063;DHT22;11699;43.704;10.430;2023-04-27T11:32:48;28.00;93.50
23063;DHT22;11699;43.704;10.430;2023-04-27T11:35:16;27.90;95.90
23063;DHT22;11699;43.704;10.430;2023-04-27T11:37:54;28.10;95.40
23063;DHT22;11699;43.704;10.430;2023-04-27T11:40:23;28.50;95.30
23063;DHT22;11699;43.704;10.430;2023-04-27T11:42:56;29.00;95.00
23063;DHT22;11699;43.704;10.430;2023-04-27T11:45:26;29.00;95.20
23063;DHT22;11699;43.704;10.430;2023-04-27T11:47:54;29.30;93.80
23063;DHT22;11699;43.704;10.430;2023-04-27T11:50:23;28.90;94.10
23063;DHT22;11699;43.704;10.430;2023-04-27T11:52:51;29.10;92.20
23063;DHT22;11699;43.704;10.430;2023-04-27T11:55:22;29.70;92.50
23063;DHT22;11699;43.704;10.430;2023-04-27T11:57:56;30.40;91.70
23063;DHT22;11699;43.704;10.430;2023-04-27T12:00:26;30.30;93.60
23063;DHT22;11699;43.704;10.430;2023-04-27T12:02:53;29.80;94.10
23063;DHT22;11699;43.704;10.430;2023-04-27T12:05:21;29.20;93.80
23063;DHT22;11699;43.704;10.430;2023-04-27T12:07:48;29.20;93.40
23063;DHT22;11699;43.704;10.430;2023-04-27T12:10:15;29.40;93.40
23063;DHT22;11699;43.704;10.430;2023-04-27T12:12:43;29.20;93.00
23063;DHT22;11699;43.704;10.430;2023-04-27T12:15:10;28.70;93.60
23063;DHT22;11699;43.704;10.430;2023-04-27T12:17:39;28.90;94.00
23063;DHT22;11699;43.704;10.430;2023-04-27T12:20:07;28.90;93.80
23063;DHT22;11699;43.704;10.430;2023-04-27T12:22:35;28.50;93.20
23063;DHT22;11699;43.704;10.430;2023-04-27T12:25:05;28.10;93.60
23063;DHT22;11699;43.704;10.430;2023-04-27T12:27:33;28.20;93.60
23063;DHT22;11699;43.704;10.430;2023-04-27T12:30:00;28.40;93.70
23063;DHT22;11699;43.704;10.430;2023-04-27T12:32:29;28.60;93.00
23063;DHT22;11699;43.704;10.430;2023-04-27T12:34:58;28.10;92.60
23063;DHT22;11699;43.704;10.430;2023-04-27T12:37:25;28.10;93.40
23063;DHT22;11699;43.704;10.430;2023-04-27T12:39:52;28.30;93.80
23063;DHT22;11699;43.704;10.430;2023-04-27T12:42:20;28.60;94.00
23063;DHT22;11699;43.704;10.430;2023-04-27T12:44:49;28.60;93.50
23063;DHT22;11699;43.704;10.430;2023-04-27T12:47:16;28.80;93.30
23063;DHT22;11699;43.704;10.430;2023-04-27T12:49:43;28.40;93.80
23063;DHT22;11699;43.704;10.430;2023-04-27T12:52:12;28.00;93.00
23063;DHT22;11699;43.704;10.430;2023-04-27T12:54:40;27.90;93.60
23063;DHT22;11699;43.704;10.430;2023-04-27T12:57:07;27.70;93.20
23063;DHT22;11699;43.704;10.430;2023-04-27T12:59:35;27.80;94.50
23063;DHT22;11699;43.704;10.430;2023-04-27T13:02:03;27.20;93.70
23063;DHT22;11699;43.704;10.430;2023-04-27T13:04:30;26.70;94.00
23063;DHT22;11699;43.704;10.430;2023-04-27T13:06:58;26.70;93.80
23063;DHT22;11699;43.704;10.430;2023-04-27T13:09:27;26.90;94.30
23063;DHT22;11699;43.704;10.430;2023-04-27T13:11:55;27.30;93.80
23063;DHT22;11699;43.704;10.430;2023-04-27T13:14:23;27.50;94.40
23063;DHT22;11699;43.704;10.430;2023-04-27T13:16:53;27.60;94.90
23063;DHT22;11699;43.704;10.430;2023-04-27T13:19:20;28.00;93.20
23063;DHT22;11699;43.704;10.430;2023-04-27T13:21:48;27.90;93.60
23063;DHT22;11699;43.704;10.430;2023-04-27T13:24:15;28.00;92.70
23063;DHT22;11699;43.704;10.430;2023-04-27T13:26:44;28.20;94.40
23063;DHT22;11699;43.704;10.430;2023-04-27T13:29:12;28.20;92.40
23063;DHT22;11699;43.704;10.430;2023-04-27T13:31:39;28.40;92.90
23063;DHT22;11699;43.704;10.430;2023-04-27T13:34:07;28.40;92.90
23063;DHT22;11699;43.704;10.430;2023-04-27T13:36:34;27.90;92.00
23063;DHT22;11699;43.704;10.430;2023-04-27T13:39:01;27.50;92.30
23063;DHT22;11699;43.704;10.430;2023-04-27T13:41:30;26.90;93.00
23063;DHT22;11699;43.704;10.430;2023-04-27T13:43:58;26.40;93.30
23063;DHT22;11699;43.704;10.430;2023-04-27T13:46:26;26.10;94.10
23063;DHT22;11699;43.704;10.430;2023-04-27T13:48:53;25.80;94.30
23063;DHT22;11699;43.704;10.430;2023-04-27T13:51:21;25.40;94.90
23063;DHT22;11699;43.704;10.430;2023-04-27T13:53:50;25.10;95.30
23063;DHT22;11699;43.704;10.430;2023-04-27T13:56:17;24.70;95.10
23063;DHT22;11699;43.704;10.430;2023-04-27T13:58:44;24.30;95.60
23063;DHT22;11699;43.704;10.430;2023-04-27T14:01:13;24.20;96.40
23063;DHT22;11699;43.704;10.430;2023-04-27T14:03:40;23.90;96.10
23063;DHT22;11699;43.704;10.430;2023-04-27T14:06:08;23.40;96.50
23063;DHT22;11699;43.704;10.430;2023-04-27T14:08:35;23.10;96.40
23063;DHT22;11699;43.704;10.430;2023-04-27T14:11:02;22.80;96.90
23063;DHT22;11699;43.704;10.430;2023-04-27T14:13:30;22.70;97.30
23063;DHT22;11699;43.704;10.430;2023-04-27T14:15:58;22.70;96.90
23063;DHT22;11699;43.704;10.430;2023-04-27T14:18:26;22.60;97.40
23063;DHT22;11699;43.704;10.430;2023-04-27T14:20:54;22.60;97.90
23063;DHT22;11699;43.704;10.430;2023-04-27T14:23:21;22.90;98.90
23063;DHT22;11699;43.704;10.430;2023-04-27T14:25:49;23.00;98.70
23063;DHT22;11699;43.704;10.430;2023-04-27T14:28:16;23.00;99.30
23063;DHT22;11699;43.704;10.430;2023-04-27T14:30:43;23.30;99.30
23063;DHT22;11699;43.704;10.430;2023-04-27T14:33:11;23.40;98.90
23063;DHT22;11699;43.704;10.430;2023-04-27T14:35:39;23.50;99.20
23063;DHT22;11699;43.704;10.430;2023-04-27T14:38:07;23.40;99.20
23063;DHT22;11699;43.704;10.430;2023-04-27T14:40:34;23.00;98.80
23063;DHT22;11699;43.704;10.430;2023-04-27T14:43:01;23.10;99.10
23063;DHT22;11699;43.704;10.430;2023-04-27T14:45:28;23.10;98.60
23063;DHT22;11699;43.704;10.430;2023-04-27T14:47:56;23.20;98.60
23063;DHT22;11699;43.704;10.430;2023-04-27T14:50:23;23.00;98.60
23063;DHT22;11699;43.704;10.430;2023-04-27T14:52:52;23.00;98.90
23063;DHT22;11699;43.704;10.430;2023-04-27T14:55:23;22.90;99.40
23063;DHT22;11699;43.704;10.430;2023-04-27T14:57:50;22.90;99.80
23063;DHT22;11699;43.704;10.430;2023-04-27T15:00:18;22.80;99.70
23063;DHT22;11699;43.704;10.430;2023-04-27T15:02:45;22.70;99.60
23063;DHT22;11699;43.704;10.430;2023-04-27T15:05:13;22.80;99.90
23063;DHT22;11699;43.704;10.430;2023-04-27T15:07:40;22.70;99.60
23063;DHT22;11699;43.704;10.430;2023-04-27T15:10:09;22.70;99.60
23063;DHT22;11699;43.704;10.430;2023-04-27T15:12:36;22.70;99.80
23063;DHT22;11699;43.704;10.430;2023-04-27T15:15:05;22.60;99.90
23063;DHT22;11699;43.704;10.430;2023-04-27T15:17:32;22.30;99.90
23063;DHT22;11699;43.704;10.430;2023-04-27T15:19:59;22.20;99.90
23063;DHT22;11699;43.704;10.430;2023-04-27T15:22:27;22.10;99.90
23063;DHT22;11699;43.704;10.430;2023-04-27T15:24:54;22.10;99.90